sensor_id;sensor_type;location;lat;lon;timestamp;P1;durP1;ratioP1;P2;durP2;ratioP2
11677;SDS011;5895;41.950;24.372;2023-06-04T00:00:58;4.93;;;4.50;;
11677;SDS011;5895;41.950;24.372;2023-06-04T00:03:26;5.28;;;3.95;;
11677;SDS011;5895;41.950;24.372;2023-06-04T00:05:55;7.22;;;4.00;;
11677;SDS011;5895;41.950;24.372;2023-06-04T00:08:22;6.50;;;4.00;;
11677;SDS011;5895;41.950;24.372;2023-06-04T00:10:50;4.68;;;4.28;;
11677;SDS011;5895;41.950;24.372;2023-06-04T00:13:17;5.22;;;4.15;;
11677;SDS011;5895;41.950;24.372;2023-06-04T00:15:45;6.13;;;5.53;;
11677;SDS011;5895;41.950;24.372;2023-06-04T00:18:12;5.60;;;4.13;;
11677;SDS011;5895;41.950;24.372;2023-06-04T00:20:40;4.55;;;4.03;;
11677;SDS011;5895;41.950;24.372;2023-06-04T00:23:08;4.50;;;4.10;;
11677;SDS011;5895;41.950;24.372;2023-06-04T00:25:36;4.65;;;4.25;;
11677;SDS011;5895;41.950;24.372;2023-06-04T00:28:03;5.47;;;4.97;;
11677;SDS011;5895;41.950;24.372;2023-06-04T00:30:30;5.63;;;4.60;;
11677;SDS011;5895;41.950;24.372;2023-06-04T00:32:58;6.25;;;5.45;;
11677;SDS011;5895;41.950;24.372;2023-06-04T00:35:25;7.30;;;4.30;;
11677;SDS011;5895;41.950;24.372;2023-06-04T00:37:53;4.75;;;4.35;;
11677;SDS011;5895;41.950;24.372;2023-06-04T00:40:21;4.47;;;4.07;;
11677;SDS011;5895;41.950;24.372;2023-06-04T00:42:49;4.47;;;4.05;;
11677;SDS011;5895;41.950;24.372;2023-06-04T00:45:16;6.93;;;4.60;;
11677;SDS011;5895;41.950;24.372;2023-06-04T00:47:45;5.05;;;4.55;;
11677;SDS011;5895;41.950;24.372;2023-06-04T00:50:13;5.00;;;4.50;;
11677;SDS011;5895;41.950;24.372;2023-06-04T00:52:40;4.78;;;4.38;;
11677;SDS011;5895;41.950;24.372;2023-06-04T00:55:08;4.70;;;4.30;;
11677;SDS011;5895;41.950;24.372;2023-06-04T00:57:38;4.75;;;4.35;;
11677;SDS011;5895;41.950;24.372;2023-06-04T01:00:06;4.80;;;4.40;;
11677;SDS011;5895;41.950;24.372;2023-06-04T01:02:34;4.47;;;4.07;;
11677;SDS011;5895;41.950;24.372;2023-06-04T01:05:09;11.60;;;4.45;;
11677;SDS011;5895;41.950;24.372;2023-06-04T01:07:43;5.10;;;4.60;;
11677;SDS011;5895;41.950;24.372;2023-06-04T01:10:12;4.68;;;4.25;;
11677;SDS011;5895;41.950;24.372;2023-06-04T01:12:41;5.53;;;4.07;;
11677;SDS011;5895;41.950;24.372;2023-06-04T01:15:09;4.82;;;4.40;;
11677;SDS011;5895;41.950;24.372;2023-06-04T01:17:38;5.50;;;4.47;;
11677;SDS011;5895;41.950;24.372;2023-06-04T01:20:14;5.93;;;3.95;;
11677;SDS011;5895;41.950;24.372;2023-06-04T01:22:50;6.18;;;4.72;;
11677;SDS011;5895;41.950;24.372;2023-06-04T01:25:32;5.85;;;4.20;;
11677;SDS011;5895;41.950;24.372;2023-06-04T01:28:05;6.18;;;4.03;;
11677;SDS011;5895;41.950;24.372;2023-06-04T01:30:36;4.47;;;4.18;;
11677;SDS011;5895;41.950;24.372;2023-06-04T01:33:08;4.47;;;4.07;;
11677;SDS011;5895;41.950;24.372;2023-06-04T01:35:36;4.55;;;4.15;;
11677;SDS011;5895;41.950;24.372;2023-06-04T01:38:04;4.47;;;4.07;;
11677;SDS011;5895;41.950;24.372;2023-06-04T01:40:31;9.63;;;3.90;;
11677;SDS011;5895;41.950;24.372;2023-06-04T01:42:59;4.88;;;4.13;;
11677;SDS011;5895;41.950;24.372;2023-06-04T01:45:28;4.38;;;4.05;;
11677;SDS011;5895;41.950;24.372;2023-06-04T01:47:55;5.95;;;3.78;;
11677;SDS011;5895;41.950;24.372;2023-06-04T01:50:23;4.55;;;3.97;;
11677;SDS011;5895;41.950;24.372;2023-06-04T01:52:50;4.70;;;4.30;;
11677;SDS011;5895;41.950;24.372;2023-06-04T01:55:18;4.70;;;4.30;;
11677;SDS011;5895;41.950;24.372;2023-06-04T01:57:45;4.28;;;3.97;;
11677;SDS011;5895;41.950;24.372;2023-06-04T02:00:13;4.63;;;4.22;;
11677;SDS011;5895;41.950;24.372;2023-06-04T02:02:43;4.63;;;4.22;;
11677;SDS011;5895;41.950;24.372;2023-06-04T02:05:13;4.25;;;3.92;;
11677;SDS011;5895;41.950;24.372;2023-06-04T02:07:41;4.70;;;4.28;;
11677;SDS011;5895;41.950;24.372;2023-06-04T02:10:10;6.60;;;4.80;;
11677;SDS011;5895;41.950;24.372;2023-06-04T02:12:38;4.93;;;4.53;;
11677;SDS011;5895;41.950;24.372;2023-06-04T02:15:09;5.00;;;4.60;;
11677;SDS011;5895;41.950;24.372;2023-06-04T02:17:37;4.88;;;4.47;;
11677;SDS011;5895;41.950;24.372;2023-06-04T02:20:07;5.38;;;4.88;;
11677;SDS011;5895;41.950;24.372;2023-06-04T02:22:36;5.90;;;4.50;;
11677;SDS011;5895;41.950;24.372;2023-06-04T02:25:03;5.85;;;4.78;;
11677;SDS011;5895;41.950;24.372;2023-06-04T02:27:34;6.85;;;5.15;;
11677;SDS011;5895;41.950;24.372;2023-06-04T02:30:01;5.10;;;4.70;;
11677;SDS011;5895;41.950;24.372;2023-06-04T02:32:28;6.15;;;5.55;;
11677;SDS011;5895;41.950;24.372;2023-06-04T02:34:56;6.05;;;5.55;;
11677;SDS011;5895;41.950;24.372;2023-06-04T02:37:24;6.07;;;5.57;;
11677;SDS011;5895;41.950;24.372;2023-06-04T02:39:52;5.40;;;4.90;;
11677;SDS011;5895;41.950;24.372;2023-06-04T02:42:19;5.43;;;4.95;;
11677;SDS011;5895;41.950;24.372;2023-06-04T02:44:46;5.88;;;4.95;;
11677;SDS011;5895;41.950;24.372;2023-06-04T02:47:14;6.50;;;4.97;;
11677;SDS011;5895;41.950;24.372;2023-06-04T02:49:41;5.32;;;4.93;;
11677;SDS011;5895;41.950;24.372;2023-06-04T02:52:08;5.70;;;5.20;;
11677;SDS011;5895;41.950;24.372;2023-06-04T02:54:37;5.50;;;5.00;;
11677;SDS011;5895;41.950;24.372;2023-06-04T02:57:05;5.53;;;5.10;;
11677;SDS011;5895;41.950;24.372;2023-06-04T02:59:33;5.97;;;5.47;;
11677;SDS011;5895;41.950;24.372;2023-06-04T03:02:01;6.35;;;5.75;;
11677;SDS011;5895;41.950;24.372;2023-06-04T03:04:29;6.47;;;5.88;;
11677;SDS011;5895;41.950;24.372;2023-06-04T03:06:59;7.68;;;6.97;;
11677;SDS011;5895;41.950;24.372;2023-06-04T03:09:28;9.10;;;7.57;;
11677;SDS011;5895;41.950;24.372;2023-06-04T03:11:58;7.50;;;6.90;;
11677;SDS011;5895;41.950;24.372;2023-06-04T03:14:27;6.50;;;6.00;;
11677;SDS011;5895;41.950;24.372;2023-06-04T03:16:57;6.28;;;5.78;;
11677;SDS011;5895;41.950;24.372;2023-06-04T03:19:32;6.30;;;5.70;;
11677;SDS011;5895;41.950;24.372;2023-06-04T03:22:01;6.68;;;5.95;;
11677;SDS011;5895;41.950;24.372;2023-06-04T03:24:34;6.15;;;5.65;;
11677;SDS011;5895;41.950;24.372;2023-06-04T03:27:05;6.20;;;5.60;;
11677;SDS011;5895;41.950;24.372;2023-06-04T03:29:33;6.82;;;5.97;;
11677;SDS011;5895;41.950;24.372;2023-06-04T03:32:01;7.03;;;6.32;;
11677;SDS011;5895;41.950;24.372;2023-06-04T03:34:29;6.38;;;5.78;;
11677;SDS011;5895;41.950;24.372;2023-06-04T03:36:57;6.65;;;5.63;;
11677;SDS011;5895;41.950;24.372;2023-06-04T03:39:25;7.05;;;6.35;;
11677;SDS011;5895;41.950;24.372;2023-06-04T03:41:52;7.90;;;5.57;;
11677;SDS011;5895;41.950;24.372;2023-06-04T03:44:22;6.10;;;5.50;;
11677;SDS011;5895;41.950;24.372;2023-06-04T03:46:49;7.18;;;6.50;;
11677;SDS011;5895;41.950;24.372;2023-06-04T03:49:16;5.90;;;5.40;;
11677;SDS011;5895;41.950;24.372;2023-06-04T03:51:44;6.60;;;5.97;;
11677;SDS011;5895;41.950;24.372;2023-06-04T03:54:12;6.65;;;6.05;;
11677;SDS011;5895;41.950;24.372;2023-06-04T03:56:42;7.00;;;5.88;;
11677;SDS011;5895;41.950;24.372;2023-06-04T03:59:10;6.05;;;5.55;;
11677;SDS011;5895;41.950;24.372;2023-06-04T04:01:39;6.35;;;5.85;;
11677;SDS011;5895;41.950;24.372;2023-06-04T04:04:06;7.28;;;5.95;;
11677;SDS011;5895;41.950;24.372;2023-06-04T04:06:34;5.70;;;5.20;;
11677;SDS011;5895;41.950;24.372;2023-06-04T04:09:02;5.97;;;5.38;;
11677;SDS011;5895;41.950;24.372;2023-06-04T04:11:31;6.10;;;5.50;;
11677;SDS011;5895;41.950;24.372;2023-06-04T04:13:58;5.70;;;5.20;;
11677;SDS011;5895;41.950;24.372;2023-06-04T04:16:25;6.68;;;5.60;;
11677;SDS011;5895;41.950;24.372;2023-06-04T04:18:55;5.97;;;5.45;;
11677;SDS011;5895;41.950;24.372;2023-06-04T04:21:23;6.25;;;5.68;;
11677;SDS011;5895;41.950;24.372;2023-06-04T04:23:50;5.90;;;5.40;;
11677;SDS011;5895;41.950;24.372;2023-06-04T04:26:18;6.03;;;5.53;;
11677;SDS011;5895;41.950;24.372;2023-06-04T04:28:45;6.05;;;5.50;;
11677;SDS011;5895;41.950;24.372;2023-06-04T04:31:13;6.50;;;6.00;;
11677;SDS011;5895;41.950;24.372;2023-06-04T04:33:40;6.20;;;5.60;;
11677;SDS011;5895;41.950;24.372;2023-06-04T04:36:10;7.07;;;6.07;;
11677;SDS011;5895;41.950;24.372;2023-06-04T04:38:39;6.80;;;6.10;;
11677;SDS011;5895;41.950;24.372;2023-06-04T04:41:06;7.05;;;6.40;;
11677;SDS011;5895;41.950;24.372;2023-06-04T04:43:35;9.77;;;8.88;;
11677;SDS011;5895;41.950;24.372;2023-06-04T04:46:04;9.35;;;8.55;;
11677;SDS011;5895;41.950;24.372;2023-06-04T04:48:32;9.40;;;8.40;;
11677;SDS011;5895;41.950;24.372;2023-06-04T04:50:59;9.20;;;8.40;;
11677;SDS011;5895;41.950;24.372;2023-06-04T04:53:28;9.05;;;8.10;;
11677;SDS011;5895;41.950;24.372;2023-06-04T04:55:56;12.55;;;11.25;;
11677;SDS011;5895;41.950;24.372;2023-06-04T04:58:24;11.65;;;10.55;;
11677;SDS011;5895;41.950;24.372;2023-06-04T05:00:51;9.52;;;8.73;;
11677;SDS011;5895;41.950;24.372;2023-06-04T05:03:19;9.48;;;8.40;;
11677;SDS011;5895;41.950;24.372;2023-06-04T05:05:46;11.23;;;8.38;;
11677;SDS011;5895;41.950;24.372;2023-06-04T05:08:13;9.75;;;8.95;;
11677;SDS011;5895;41.950;24.372;2023-06-04T05:10:42;11.32;;;10.32;;
11677;SDS011;5895;41.950;24.372;2023-06-04T05:13:10;13.52;;;12.18;;
11677;SDS011;5895;41.950;24.372;2023-06-04T05:15:37;15.85;;;14.27;;
11677;SDS011;5895;41.950;24.372;2023-06-04T05:18:07;14.05;;;12.82;;
11677;SDS011;5895;41.950;24.372;2023-06-04T05:20:35;15.38;;;13.95;;
11677;SDS011;5895;41.950;24.372;2023-06-04T05:23:02;16.40;;;14.90;;
11677;SDS011;5895;41.950;24.372;2023-06-04T05:25:30;17.73;;;15.82;;
11677;SDS011;5895;41.950;24.372;2023-06-04T05:27:59;17.77;;;15.90;;
11677;SDS011;5895;41.950;24.372;2023-06-04T05:30:26;19.92;;;17.85;;
11677;SDS011;5895;41.950;24.372;2023-06-04T05:32:54;18.50;;;15.88;;
11677;SDS011;5895;41.950;24.372;2023-06-04T05:35:21;14.75;;;13.35;;
11677;SDS011;5895;41.950;24.372;2023-06-04T05:37:49;14.10;;;12.77;;
11677;SDS011;5895;41.950;24.372;2023-06-04T05:40:19;14.35;;;12.82;;
11677;SDS011;5895;41.950;24.372;2023-06-04T05:42:47;13.68;;;12.32;;
11677;SDS011;5895;41.950;24.372;2023-06-04T05:45:16;15.25;;;13.85;;
11677;SDS011;5895;41.950;24.372;2023-06-04T05:47:44;16.35;;;14.90;;
11677;SDS011;5895;41.950;24.372;2023-06-04T05:50:11;16.13;;;14.43;;
11677;SDS011;5895;41.950;24.372;2023-06-04T05:52:38;11.48;;;10.40;;
11677;SDS011;5895;41.950;24.372;2023-06-04T05:55:06;10.70;;;9.70;;
11677;SDS011;5895;41.950;24.372;2023-06-04T05:57:35;11.80;;;10.82;;
11677;SDS011;5895;41.950;24.372;2023-06-04T06:00:03;11.07;;;10.07;;
11677;SDS011;5895;41.950;24.372;2023-06-04T06:02:35;11.88;;;10.52;;
11677;SDS011;5895;41.950;24.372;2023-06-04T06:05:04;9.93;;;8.95;;
11677;SDS011;5895;41.950;24.372;2023-06-04T06:07:33;8.23;;;7.47;;
11677;SDS011;5895;41.950;24.372;2023-06-04T06:10:00;8.23;;;7.18;;
11677;SDS011;5895;41.950;24.372;2023-06-04T06:12:28;7.88;;;7.07;;
11677;SDS011;5895;41.950;24.372;2023-06-04T06:14:55;7.53;;;6.68;;
11677;SDS011;5895;41.950;24.372;2023-06-04T06:17:23;7.53;;;6.72;;
11677;SDS011;5895;41.950;24.372;2023-06-04T06:19:52;9.27;;;6.95;;
11677;SDS011;5895;41.950;24.372;2023-06-04T06:22:20;7.75;;;7.05;;
11677;SDS011;5895;41.950;24.372;2023-06-04T06:24:47;8.18;;;6.82;;
11677;SDS011;5895;41.950;24.372;2023-06-04T06:27:15;7.05;;;6.30;;
11677;SDS011;5895;41.950;24.372;2023-06-04T06:29:42;7.20;;;6.60;;
11677;SDS011;5895;41.950;24.372;2023-06-04T06:32:10;6.15;;;5.63;;
11677;SDS011;5895;41.950;24.372;2023-06-04T06:34:38;6.35;;;5.85;;
11677;SDS011;5895;41.950;24.372;2023-06-04T06:37:07;7.30;;;6.60;;
11677;SDS011;5895;41.950;24.372;2023-06-04T06:39:35;10.00;;;8.00;;
11677;SDS011;5895;41.950;24.372;2023-06-04T06:42:02;8.30;;;7.53;;
11677;SDS011;5895;41.950;24.372;2023-06-04T06:44:30;9.65;;;7.25;;
11677;SDS011;5895;41.950;24.372;2023-06-04T06:46:57;12.27;;;11.13;;
11677;SDS011;5895;41.950;24.372;2023-06-04T06:49:25;11.15;;;10.15;;
11677;SDS011;5895;41.950;24.372;2023-06-04T06:51:52;12.18;;;11.15;;
11677;SDS011;5895;41.950;24.372;2023-06-04T06:54:21;13.82;;;11.90;;
11677;SDS011;5895;41.950;24.372;2023-06-04T06:56:49;11.93;;;10.75;;
11677;SDS011;5895;41.950;24.372;2023-06-04T06:59:16;11.60;;;10.40;;
11677;SDS011;5895;41.950;24.372;2023-06-04T07:01:43;12.98;;;11.73;;
11677;SDS011;5895;41.950;24.372;2023-06-04T07:04:12;11.48;;;10.38;;
11677;SDS011;5895;41.950;24.372;2023-06-04T07:06:40;12.13;;;10.10;;
11677;SDS011;5895;41.950;24.372;2023-06-04T07:09:07;11.82;;;10.63;;
11677;SDS011;5895;41.950;24.372;2023-06-04T07:11:36;15.65;;;13.20;;
11677;SDS011;5895;41.950;24.372;2023-06-04T07:14:03;32.70;;;27.83;;
11677;SDS011;5895;41.950;24.372;2023-06-04T07:16:31;10.90;;;6.53;;
11677;SDS011;5895;41.950;24.372;2023-06-04T07:19:00;8.32;;;6.80;;
11677;SDS011;5895;41.950;24.372;2023-06-04T07:21:27;14.15;;;12.85;;
11677;SDS011;5895;41.950;24.372;2023-06-04T07:23:55;10.50;;;9.60;;
11677;SDS011;5895;41.950;24.372;2023-06-04T07:26:22;12.38;;;8.98;;
11677;SDS011;5895;41.950;24.372;2023-06-04T07:28:51;10.63;;;9.55;;
11677;SDS011;5895;41.950;24.372;2023-06-04T07:31:19;11.50;;;9.18;;
11677;SDS011;5895;41.950;24.372;2023-06-04T07:33:46;11.57;;;9.07;;
11677;SDS011;5895;41.950;24.372;2023-06-04T07:36:14;9.60;;;8.57;;
11677;SDS011;5895;41.950;24.372;2023-06-04T07:38:41;9.48;;;8.57;;
11677;SDS011;5895;41.950;24.372;2023-06-04T07:41:09;9.93;;;9.02;;
11677;SDS011;5895;41.950;24.372;2023-06-04T07:43:37;13.52;;;12.20;;
11677;SDS011;5895;41.950;24.372;2023-06-04T07:46:06;13.13;;;11.98;;
11677;SDS011;5895;41.950;24.372;2023-06-04T07:48:34;14.57;;;13.27;;
11677;SDS011;5895;41.950;24.372;2023-06-04T07:51:02;14.30;;;12.73;;
11677;SDS011;5895;41.950;24.372;2023-06-04T07:53:30;12.80;;;11.48;;
11677;SDS011;5895;41.950;24.372;2023-06-04T07:55:57;14.88;;;13.40;;
11677;SDS011;5895;41.950;24.372;2023-06-04T07:58:25;15.82;;;14.32;;
11677;SDS011;5895;41.950;24.372;2023-06-04T08:00:53;14.55;;;13.00;;
11677;SDS011;5895;41.950;24.372;2023-06-04T08:03:21;14.23;;;12.95;;
11677;SDS011;5895;41.950;24.372;2023-06-04T08:05:49;11.52;;;10.52;;
11677;SDS011;5895;41.950;24.372;2023-06-04T08:08:17;12.20;;;11.10;;
11677;SDS011;5895;41.950;24.372;2023-06-04T08:10:44;13.07;;;11.88;;
11677;SDS011;5895;41.950;24.372;2023-06-04T08:13:11;14.40;;;12.63;;
11677;SDS011;5895;41.950;24.372;2023-06-04T08:15:39;13.13;;;11.93;;
11677;SDS011;5895;41.950;24.372;2023-06-04T08:18:06;13.43;;;11.93;;
11677;SDS011;5895;41.950;24.372;2023-06-04T08:20:35;12.80;;;10.95;;
11677;SDS011;5895;41.950;24.372;2023-06-04T08:23:02;15.70;;;11.95;;
11677;SDS011;5895;41.950;24.372;2023-06-04T08:25:30;13.27;;;12.05;;
11677;SDS011;5895;41.950;24.372;2023-06-04T08:27:57;13.15;;;11.95;;
11677;SDS011;5895;41.950;24.372;2023-06-04T08:30:25;13.30;;;12.20;;
11677;SDS011;5895;41.950;24.372;2023-06-04T08:32:52;13.52;;;12.23;;
11677;SDS011;5895;41.950;24.372;2023-06-04T08:35:20;14.30;;;13.02;;
11677;SDS011;5895;41.950;24.372;2023-06-04T08:37:49;13.18;;;12.02;;
11677;SDS011;5895;41.950;24.372;2023-06-04T08:40:16;14.57;;;13.18;;
11677;SDS011;5895;41.950;24.372;2023-06-04T08:42:44;13.80;;;12.60;;
11677;SDS011;5895;41.950;24.372;2023-06-04T08:45:12;16.38;;;14.82;;
11677;SDS011;5895;41.950;24.372;2023-06-04T08:47:40;15.45;;;14.05;;
11677;SDS011;5895;41.950;24.372;2023-06-04T08:50:11;16.33;;;14.88;;
11677;SDS011;5895;41.950;24.372;2023-06-04T08:52:40;14.25;;;12.93;;
11677;SDS011;5895;41.950;24.372;2023-06-04T08:55:09;15.93;;;14.52;;
11677;SDS011;5895;41.950;24.372;2023-06-04T08:57:39;36.35;;;18.33;;
11677;SDS011;5895;41.950;24.372;2023-06-04T09:00:07;16.10;;;14.60;;
11677;SDS011;5895;41.950;24.372;2023-06-04T09:02:35;17.98;;;16.05;;
11677;SDS011;5895;41.950;24.372;2023-06-04T09:05:04;134.32;;;18.98;;
11677;SDS011;5895;41.950;24.372;2023-06-04T09:07:35;16.33;;;14.93;;
11677;SDS011;5895;41.950;24.372;2023-06-04T09:10:04;17.52;;;15.73;;
11677;SDS011;5895;41.950;24.372;2023-06-04T09:12:37;16.05;;;14.60;;
11677;SDS011;5895;41.950;24.372;2023-06-04T09:15:08;21.45;;;19.23;;
11677;SDS011;5895;41.950;24.372;2023-06-04T09:17:36;35.80;;;19.85;;
11677;SDS011;5895;41.950;24.372;2023-06-04T09:20:04;20.25;;;18.15;;
11677;SDS011;5895;41.950;24.372;2023-06-04T09:22:34;24.02;;;21.38;;
11677;SDS011;5895;41.950;24.372;2023-06-04T09:25:03;39.05;;;26.35;;
11677;SDS011;5895;41.950;24.372;2023-06-04T09:27:39;38.42;;;23.17;;
11677;SDS011;5895;41.950;24.372;2023-06-04T09:30:07;105.97;;;23.08;;
11677;SDS011;5895;41.950;24.372;2023-06-04T09:32:35;153.88;;;25.90;;
11677;SDS011;5895;41.950;24.372;2023-06-04T09:35:09;38.92;;;23.98;;
11677;SDS011;5895;41.950;24.372;2023-06-04T09:37:38;162.90;;;28.20;;
11677;SDS011;5895;41.950;24.372;2023-06-04T09:40:06;26.17;;;21.73;;
11677;SDS011;5895;41.950;24.372;2023-06-04T09:42:45;48.95;;;23.75;;
11677;SDS011;5895;41.950;24.372;2023-06-04T09:45:26;224.60;;;27.63;;
11677;SDS011;5895;41.950;24.372;2023-06-04T09:47:54;305.05;;;31.73;;
11677;SDS011;5895;41.950;24.372;2023-06-04T09:50:24;282.60;;;33.47;;
11677;SDS011;5895;41.950;24.372;2023-06-04T09:52:52;32.05;;;28.20;;
11677;SDS011;5895;41.950;24.372;2023-06-04T09:55:20;240.07;;;29.75;;
11677;SDS011;5895;41.950;24.372;2023-06-04T09:57:49;21.75;;;19.85;;
11677;SDS011;5895;41.950;24.372;2023-06-04T10:00:18;19.58;;;17.88;;
11677;SDS011;5895;41.950;24.372;2023-06-04T10:02:48;20.70;;;18.95;;
11677;SDS011;5895;41.950;24.372;2023-06-04T10:05:16;21.33;;;19.20;;
11677;SDS011;5895;41.950;24.372;2023-06-04T10:07:46;22.75;;;20.70;;
11677;SDS011;5895;41.950;24.372;2023-06-04T10:10:18;22.42;;;20.10;;
11677;SDS011;5895;41.950;24.372;2023-06-04T10:12:49;41.22;;;24.25;;
11677;SDS011;5895;41.950;24.372;2023-06-04T10:15:20;27.60;;;24.73;;
11677;SDS011;5895;41.950;24.372;2023-06-04T10:17:48;110.18;;;26.48;;
11677;SDS011;5895;41.950;24.372;2023-06-04T10:20:17;66.55;;;26.45;;
11677;SDS011;5895;41.950;24.372;2023-06-04T10:22:46;25.08;;;22.77;;
11677;SDS011;5895;41.950;24.372;2023-06-04T10:25:15;56.13;;;27.75;;
11677;SDS011;5895;41.950;24.372;2023-06-04T10:27:43;37.90;;;26.45;;
11677;SDS011;5895;41.950;24.372;2023-06-04T10:30:14;27.63;;;24.63;;
11677;SDS011;5895;41.950;24.372;2023-06-04T10:32:41;29.20;;;26.40;;
11677;SDS011;5895;41.950;24.372;2023-06-04T10:35:09;30.38;;;27.23;;
11677;SDS011;5895;41.950;24.372;2023-06-04T10:37:37;44.25;;;25.05;;
11677;SDS011;5895;41.950;24.372;2023-06-04T10:40:05;29.23;;;26.42;;
11677;SDS011;5895;41.950;24.372;2023-06-04T10:42:37;39.70;;;26.63;;
11677;SDS011;5895;41.950;24.372;2023-06-04T10:45:06;91.32;;;32.40;;
11677;SDS011;5895;41.950;24.372;2023-06-04T10:47:37;153.27;;;35.60;;
11677;SDS011;5895;41.950;24.372;2023-06-04T10:50:07;35.13;;;31.83;;
11677;SDS011;5895;41.950;24.372;2023-06-04T10:52:35;31.63;;;28.55;;
11677;SDS011;5895;41.950;24.372;2023-06-04T10:55:03;32.05;;;28.88;;
11677;SDS011;5895;41.950;24.372;2023-06-04T10:57:32;33.78;;;30.42;;
11677;SDS011;5895;41.950;24.372;2023-06-04T11:00:00;31.10;;;27.98;;
11677;SDS011;5895;41.950;24.372;2023-06-04T11:02:31;39.90;;;32.50;;
11677;SDS011;5895;41.950;24.372;2023-06-04T11:05:01;32.83;;;29.42;;
11677;SDS011;5895;41.950;24.372;2023-06-04T11:07:40;31.25;;;28.23;;
11677;SDS011;5895;41.950;24.372;2023-06-04T11:10:09;27.77;;;25.27;;
11677;SDS011;5895;41.950;24.372;2023-06-04T11:12:43;29.42;;;26.83;;
11677;SDS011;5895;41.950;24.372;2023-06-04T11:15:11;29.83;;;26.90;;
11677;SDS011;5895;41.950;24.372;2023-06-04T11:17:48;27.45;;;25.05;;
11677;SDS011;5895;41.950;24.372;2023-06-04T11:20:19;32.85;;;29.95;;
11677;SDS011;5895;41.950;24.372;2023-06-04T11:22:51;27.65;;;25.05;;
11677;SDS011;5895;41.950;24.372;2023-06-04T11:25:21;30.83;;;27.92;;
11677;SDS011;5895;41.950;24.372;2023-06-04T11:27:48;31.08;;;28.20;;
11677;SDS011;5895;41.950;24.372;2023-06-04T11:30:16;32.58;;;29.45;;
11677;SDS011;5895;41.950;24.372;2023-06-04T11:32:43;31.98;;;28.75;;
11677;SDS011;5895;41.950;24.372;2023-06-04T11:35:11;34.22;;;30.17;;
11677;SDS011;5895;41.950;24.372;2023-06-04T11:37:40;28.58;;;25.80;;
11677;SDS011;5895;41.950;24.372;2023-06-04T11:40:17;28.63;;;26.13;;
11677;SDS011;5895;41.950;24.372;2023-06-04T11:42:45;32.72;;;29.42;;
11677;SDS011;5895;41.950;24.372;2023-06-04T11:45:13;33.55;;;29.80;;
11677;SDS011;5895;41.950;24.372;2023-06-04T11:47:44;34.63;;;31.10;;
11677;SDS011;5895;41.950;24.372;2023-06-04T11:50:13;36.05;;;32.47;;
11677;SDS011;5895;41.950;24.372;2023-06-04T11:52:42;36.03;;;32.50;;
11677;SDS011;5895;41.950;24.372;2023-06-04T11:55:10;34.05;;;30.90;;
11677;SDS011;5895;41.950;24.372;2023-06-04T11:57:38;33.17;;;29.85;;
11677;SDS011;5895;41.950;24.372;2023-06-04T12:00:07;32.88;;;29.98;;
11677;SDS011;5895;41.950;24.372;2023-06-04T12:02:36;32.28;;;29.48;;
11677;SDS011;5895;41.950;24.372;2023-06-04T12:05:13;26.48;;;24.17;;
11677;SDS011;5895;41.950;24.372;2023-06-04T12:07:42;28.77;;;26.27;;
11677;SDS011;5895;41.950;24.372;2023-06-04T12:10:10;30.13;;;27.52;;
11677;SDS011;5895;41.950;24.372;2023-06-04T12:12:38;27.98;;;25.38;;
11677;SDS011;5895;41.950;24.372;2023-06-04T12:15:07;28.23;;;25.80;;
11677;SDS011;5895;41.950;24.372;2023-06-04T12:17:35;30.55;;;27.48;;
11677;SDS011;5895;41.950;24.372;2023-06-04T12:20:03;28.45;;;25.88;;
11677;SDS011;5895;41.950;24.372;2023-06-04T12:22:31;35.80;;;32.38;;
11677;SDS011;5895;41.950;24.372;2023-06-04T12:25:00;31.42;;;28.63;;
11677;SDS011;5895;41.950;24.372;2023-06-04T12:27:28;30.08;;;27.33;;
11677;SDS011;5895;41.950;24.372;2023-06-04T12:29:59;33.65;;;30.25;;
11677;SDS011;5895;41.950;24.372;2023-06-04T12:32:34;31.15;;;28.25;;
11677;SDS011;5895;41.950;24.372;2023-06-04T12:35:02;31.02;;;28.25;;
11677;SDS011;5895;41.950;24.372;2023-06-04T12:37:30;30.17;;;27.48;;
11677;SDS011;5895;41.950;24.372;2023-06-04T12:39:57;32.92;;;29.67;;
11677;SDS011;5895;41.950;24.372;2023-06-04T12:42:26;35.53;;;32.17;;
11677;SDS011;5895;41.950;24.372;2023-06-04T12:44:54;34.95;;;31.75;;
11677;SDS011;5895;41.950;24.372;2023-06-04T12:47:21;34.70;;;31.42;;
11677;SDS011;5895;41.950;24.372;2023-06-04T12:49:48;33.45;;;30.38;;
11677;SDS011;5895;41.950;24.372;2023-06-04T12:52:16;33.30;;;30.38;;
11677;SDS011;5895;41.950;24.372;2023-06-04T12:54:44;34.38;;;30.88;;
11677;SDS011;5895;41.950;24.372;2023-06-04T12:57:11;38.05;;;34.05;;
11677;SDS011;5895;41.950;24.372;2023-06-04T12:59:40;33.10;;;29.83;;
11677;SDS011;5895;41.950;24.372;2023-06-04T13:02:08;29.13;;;26.45;;
11677;SDS011;5895;41.950;24.372;2023-06-04T13:04:35;27.30;;;24.60;;
11677;SDS011;5895;41.950;24.372;2023-06-04T13:07:02;23.42;;;21.33;;
11677;SDS011;5895;41.950;24.372;2023-06-04T13:09:30;22.23;;;20.20;;
11677;SDS011;5895;41.950;24.372;2023-06-04T13:11:58;19.85;;;18.00;;
11677;SDS011;5895;41.950;24.372;2023-06-04T13:14:25;18.77;;;16.98;;
11677;SDS011;5895;41.950;24.372;2023-06-04T13:16:54;18.05;;;16.35;;
11677;SDS011;5895;41.950;24.372;2023-06-04T13:19:21;17.83;;;16.33;;
11677;SDS011;5895;41.950;24.372;2023-06-04T13:21:48;16.92;;;15.43;;
11677;SDS011;5895;41.950;24.372;2023-06-04T13:24:16;17.58;;;15.98;;
11677;SDS011;5895;41.950;24.372;2023-06-04T13:26:43;14.65;;;13.27;;
11677;SDS011;5895;41.950;24.372;2023-06-04T13:29:10;14.55;;;13.05;;
11677;SDS011;5895;41.950;24.372;2023-06-04T13:31:38;15.07;;;13.60;;
11677;SDS011;5895;41.950;24.372;2023-06-04T13:34:07;13.88;;;12.60;;
11677;SDS011;5895;41.950;24.372;2023-06-04T13:36:34;14.43;;;13.23;;
11677;SDS011;5895;41.950;24.372;2023-06-04T13:39:02;15.52;;;14.02;;
11677;SDS011;5895;41.950;24.372;2023-06-04T13:41:29;15.05;;;13.60;;
11677;SDS011;5895;41.950;24.372;2023-06-04T13:43:57;15.73;;;14.27;;
11677;SDS011;5895;41.950;24.372;2023-06-04T13:46:24;15.55;;;14.07;;
11677;SDS011;5895;41.950;24.372;2023-06-04T13:48:51;16.38;;;14.77;;
11677;SDS011;5895;41.950;24.372;2023-06-04T13:51:20;14.02;;;12.45;;
11677;SDS011;5895;41.950;24.372;2023-06-04T13:53:47;14.82;;;13.55;;
11677;SDS011;5895;41.950;24.372;2023-06-04T13:56:17;14.15;;;12.75;;
11677;SDS011;5895;41.950;24.372;2023-06-04T13:58:44;14.57;;;13.35;;
11677;SDS011;5895;41.950;24.372;2023-06-04T14:01:11;13.68;;;12.48;;
11677;SDS011;5895;41.950;24.372;2023-06-04T14:03:39;19.75;;;17.92;;
11677;SDS011;5895;41.950;24.372;2023-06-04T14:06:06;22.65;;;20.75;;
11677;SDS011;5895;41.950;24.372;2023-06-04T14:08:35;22.17;;;20.17;;
11677;SDS011;5895;41.950;24.372;2023-06-04T14:11:02;20.05;;;18.00;;
11677;SDS011;5895;41.950;24.372;2023-06-04T14:13:29;19.30;;;17.55;;
11677;SDS011;5895;41.950;24.372;2023-06-04T14:15:57;20.58;;;18.77;;
11677;SDS011;5895;41.950;24.372;2023-06-04T14:18:24;21.02;;;19.13;;
11677;SDS011;5895;41.950;24.372;2023-06-04T14:20:51;18.63;;;17.05;;
11677;SDS011;5895;41.950;24.372;2023-06-04T14:23:19;17.85;;;16.45;;
11677;SDS011;5895;41.950;24.372;2023-06-04T14:25:48;19.67;;;17.85;;
11677;SDS011;5895;41.950;24.372;2023-06-04T14:28:15;20.40;;;18.40;;
11677;SDS011;5895;41.950;24.372;2023-06-04T14:30:43;18.52;;;16.83;;
11677;SDS011;5895;41.950;24.372;2023-06-04T14:33:10;17.98;;;16.25;;
11677;SDS011;5895;41.950;24.372;2023-06-04T14:35:37;17.00;;;15.65;;
11677;SDS011;5895;41.950;24.372;2023-06-04T14:38:09;18.40;;;16.80;;